Time;durP1;ratioP1;P1;durP2;ratioP2;P2;SDS_P1;SDS_P2;PMS_P1;PMS_P2;Temp;Humidity;BMP_temperature;BMP_pressure;BME280_temperature;BME280_humidity;BME280_pressure;Samples;Min_cycle;Max_cycle;Signal;HPM_P1;HPM_P2
2023/06/28 00:02:18;;;;;;;12.95;4.93;;;19.40;99.90;;;;;;4975568;28;20109;-76
2023/06/28 00:04:45;;;;;;;15.30;4.10;;;19.40;99.90;;;;;;4974507;28;20125;-84
2023/06/28 00:07:12;;;;;;;14.15;4.20;;;19.40;99.90;;;;;;4975912;28;20039;-80
2023/06/28 00:09:38;;;;;;;9.57;3.85;;;19.40;99.90;;;;;;4976341;28;20470;-82
2023/06/28 00:12:05;;;;;;;13.98;4.10;;;19.40;99.90;;;;;;4960670;28;20445;-81
2023/06/28 00:14:32;;;;;;;13.43;4.15;;;19.40;99.90;;;;;;4979548;28;20054;-82
2023/06/28 00:16:59;;;;;;;12.35;4.43;;;19.50;99.90;;;;;;4998332;28;20038;-78
2023/06/28 00:19:26;;;;;;;13.40;4.20;;;19.40;99.90;;;;;;4997345;28;20445;-81
2023/06/28 00:21:53;;;;;;;13.55;3.83;;;19.50;99.90;;;;;;4998362;28;20056;-81
2023/06/28 00:24:20;;;;;;;13.65;4.18;;;19.40;99.90;;;;;;4997553;28;20457;-82
2023/06/28 00:26:47;;;;;;;14.30;4.68;;;19.30;99.90;;;;;;4998031;28;20046;-84
2023/06/28 00:29:13;;;;;;;12.35;4.20;;;19.30;99.90;;;;;;4997338;28;20080;-83
2023/06/28 00:31:40;;;;;;;13.93;4.43;;;19.30;99.90;;;;;;4997318;28;20046;-82
2023/06/28 00:34:07;;;;;;;13.10;4.50;;;19.20;99.90;;;;;;4997496;28;20041;-85
2023/06/28 00:36:34;;;;;;;15.05;4.20;;;19.10;99.90;;;;;;4997255;28;20051;-81
2023/06/28 00:39:02;;;;;;;13.50;4.65;;;19.20;99.90;;;;;;4979759;28;20054;-81
2023/06/28 00:41:29;;;;;;;13.32;4.05;;;19.20;99.90;;;;;;4981206;28;20081;-84
2023/06/28 00:43:56;;;;;;;10.30;3.92;;;19.20;99.90;;;;;;4997943;28;20070;-81
2023/06/28 00:46:23;;;;;;;15.70;4.00;;;19.20;99.90;;;;;;4980513;28;20053;-79
2023/06/28 00:48:49;;;;;;;15.93;4.57;;;19.30;99.90;;;;;;4997823;28;20050;-83
2023/06/28 00:51:17;;;;;;;14.57;4.25;;;19.20;99.90;;;;;;4996973;28;20070;-80
2023/06/28 00:53:44;;;;;;;13.93;4.68;;;19.20;99.90;;;;;;4997743;28;20066;-78
2023/06/28 00:56:12;;;;;;;12.50;3.65;;;19.20;99.90;;;;;;4997643;28;20069;-81
2023/06/28 00:58:40;;;;;;;14.55;3.90;;;19.30;99.90;;;;;;4979759;28;20039;-80
2023/06/28 01:01:07;;;;;;;14.13;4.50;;;19.30;99.90;;;;;;4980388;28;20046;-82
2023/06/28 01:03:35;;;;;;;16.33;4.28;;;19.20;99.90;;;;;;4997538;28;20121;-83
2023/06/28 01:06:03;;;;;;;14.48;4.38;;;19.30;99.90;;;;;;4996643;28;20042;-80
2023/06/28 01:08:29;;;;;;;12.85;4.35;;;19.20;99.90;;;;;;4980441;28;20062;-78
2023/06/28 01:10:56;;;;;;;14.15;4.68;;;19.20;99.90;;;;;;4995240;28;20047;-79
2023/06/28 01:13:23;;;;;;;13.93;4.43;;;19.20;99.90;;;;;;4996669;28;20042;-79
2023/06/28 01:15:51;;;;;;;14.52;4.50;;;19.10;99.90;;;;;;4980160;28;20050;-77
2023/06/28 01:18:21;;;;;;;15.57;4.18;;;19.10;99.90;;;;;;4996566;28;20177;-82
2023/06/28 01:20:47;;;;;;;12.60;4.50;;;19.10;99.90;;;;;;4979174;28;20392;-81
2023/06/28 01:23:14;;;;;;;14.55;4.38;;;19.10;99.90;;;;;;4997231;28;20042;-82
2023/06/28 01:25:41;;;;;;;23.88;5.20;;;19.20;99.90;;;;;;4996460;28;20468;-81
2023/06/28 01:28:08;;;;;;;17.73;5.22;;;19.10;99.90;;;;;;4997187;28;20069;-79
2023/06/28 01:30:37;;;;;;;20.88;5.25;;;19.10;99.90;;;;;;4996981;28;20046;-80
2023/06/28 01:33:04;;;;;;;13.23;4.47;;;19.10;99.90;;;;;;4997057;28;20450;-84
2023/06/28 01:35:31;;;;;;;13.40;4.72;;;19.20;99.90;;;;;;4980019;28;20058;-81
2023/06/28 01:37:58;;;;;;;15.40;4.95;;;19.20;99.90;;;;;;4996190;28;20042;-81
2023/06/28 01:40:25;;;;;;;15.07;4.85;;;19.30;99.90;;;;;;4996755;28;20054;-79
2023/06/28 01:42:51;;;;;;;19.00;5.57;;;19.20;99.90;;;;;;4996746;28;20069;-80
2023/06/28 01:45:18;;;;;;;12.68;4.80;;;19.20;99.90;;;;;;4995780;28;20050;-79
2023/06/28 01:47:45;;;;;;;16.88;5.13;;;19.30;99.90;;;;;;4996853;28;20477;-80
2023/06/28 01:50:12;;;;;;;15.18;4.45;;;19.30;99.90;;;;;;4995946;28;20046;-78
2023/06/28 01:52:39;;;;;;;14.48;4.68;;;19.20;99.90;;;;;;4995805;28;20496;-79
2023/06/28 01:55:07;;;;;;;15.82;4.78;;;19.20;99.90;;;;;;4996785;28;20112;-80
2023/06/28 01:57:33;;;;;;;14.32;4.32;;;19.10;99.90;;;;;;4978629;28;20038;-82
2023/06/28 02:00:07;;;;;;;15.63;4.78;;;19.10;99.90;;;;;;4979176;28;20042;-80
2023/06/28 02:02:42;;;;;;;14.23;5.05;;;19.10;99.90;;;;;;4996673;28;20078;-82
2023/06/28 02:05:11;;;;;;;26.38;4.65;;;19.20;99.90;;;;;;4978601;28;20441;-81
2023/06/28 02:07:41;;;;;;;17.08;4.95;;;19.20;99.90;;;;;;4979458;28;20049;-81
2023/06/28 02:10:08;;;;;;;12.35;4.80;;;19.20;99.90;;;;;;4995839;28;20046;-83
2023/06/28 02:12:35;;;;;;;10.90;4.45;;;19.30;99.90;;;;;;4978207;28;20050;-80
2023/06/28 02:15:04;;;;;;;16.60;4.20;;;19.20;99.90;;;;;;4979318;28;20050;-78
2023/06/28 02:17:31;;;;;;;16.15;4.70;;;19.30;99.90;;;;;;4995514;28;20361;-80
2023/06/28 02:19:58;;;;;;;17.35;4.93;;;19.20;99.90;;;;;;4995825;28;20467;-82
2023/06/28 02:22:24;;;;;;;16.30;5.18;;;19.20;99.90;;;;;;4996277;28;20373;-84
2023/06/28 02:24:51;;;;;;;16.95;4.78;;;19.20;99.90;;;;;;4995239;28;20078;-81
2023/06/28 02:27:18;;;;;;;16.45;4.82;;;19.20;99.90;;;;;;4995887;28;20081;-81
2023/06/28 02:29:45;;;;;;;17.00;5.60;;;19.20;99.90;;;;;;4994847;28;20729;-78
2023/06/28 02:32:12;;;;;;;20.60;5.28;;;19.20;99.90;;;;;;4994821;28;20114;-81
2023/06/28 02:34:39;;;;;;;16.55;5.53;;;19.10;99.90;;;;;;4995460;28;20062;-83
2023/06/28 02:37:06;;;;;;;15.38;5.03;;;19.10;99.90;;;;;;4995892;28;20072;-81
2023/06/28 02:39:33;;;;;;;12.50;4.57;;;19.20;99.90;;;;;;4993754;28;20054;-80
2023/06/28 02:41:59;;;;;;;16.48;5.43;;;19.20;99.90;;;;;;4978606;28;20042;-79
2023/06/28 02:44:26;;;;;;;11.00;4.85;;;19.20;99.90;;;;;;4994881;28;20473;-82
2023/06/28 02:46:53;;;;;;;17.85;5.10;;;19.20;99.90;;;;;;4978507;28;20048;-83
2023/06/28 02:49:21;;;;;;;12.68;5.43;;;19.20;99.90;;;;;;4995754;28;20034;-79
2023/06/28 02:51:47;;;;;;;20.52;5.35;;;19.20;99.90;;;;;;4977827;28;20046;-78
2023/06/28 02:54:15;;;;;;;14.70;5.38;;;19.20;99.90;;;;;;4978717;28;20051;-82
2023/06/28 02:56:42;;;;;;;13.43;5.00;;;19.20;99.90;;;;;;4978519;28;20050;-82
2023/06/28 02:59:23;;;;;;;13.45;5.15;;;19.20;99.90;;;;;;4994517;28;20042;-79
2023/06/28 03:01:53;;;;;;;19.08;5.55;;;19.10;99.90;;;;;;4978531;28;20100;-77
2023/06/28 03:04:20;;;;;;;15.38;4.75;;;19.10;99.90;;;;;;4993823;28;20076;-79
2023/06/28 03:06:49;;;;;;;14.38;5.43;;;19.10;99.90;;;;;;4978486;28;20097;-80
2023/06/28 03:09:16;;;;;;;19.65;5.60;;;19.00;99.90;;;;;;5000324;28;20065;-79
2023/06/28 03:11:42;;;;;;;15.18;4.93;;;18.90;99.90;;;;;;5009951;28;20039;-82
2023/06/28 03:14:10;;;;;;;15.95;5.65;;;18.90;99.90;;;;;;4994676;28;20038;-82
2023/06/28 03:16:37;;;;;;;19.58;5.53;;;19.00;99.90;;;;;;5010905;28;20417;-81
2023/06/28 03:19:05;;;;;;;16.52;5.20;;;18.90;99.90;;;;;;5009925;28;20051;-82
2023/06/28 03:21:31;;;;;;;20.60;5.40;;;18.90;99.90;;;;;;5010592;28;20070;-78
2023/06/28 03:23:58;;;;;;;15.02;5.82;;;18.90;99.90;;;;;;5010110;28;20068;-83
2023/06/28 03:26:26;;;;;;;20.83;5.20;;;18.90;99.90;;;;;;4995407;28;20042;-82
2023/06/28 03:28:57;;;;;;;20.02;5.90;;;18.90;99.90;;;;;;4995450;28;20093;-81
2023/06/28 03:31:26;;;;;;;16.40;5.78;;;18.90;99.90;;;;;;5009884;28;20098;-83
2023/06/28 03:33:53;;;;;;;15.75;5.65;;;18.90;99.90;;;;;;5010560;28;20038;-83
2023/06/28 03:36:20;;;;;;;18.05;5.93;;;18.90;99.90;;;;;;5010575;28;20458;-82
2023/06/28 03:38:47;;;;;;;18.08;5.72;;;18.90;99.90;;;;;;5009839;28;20117;-82
2023/06/28 03:41:14;;;;;;;25.05;6.35;;;19.00;99.90;;;;;;5010641;28;20495;-83
2023/06/28 03:43:41;;;;;;;19.92;6.20;;;18.90;99.90;;;;;;5010522;28;20080;-79
2023/06/28 03:46:08;;;;;;;19.23;5.93;;;18.90;99.90;;;;;;4997078;28;20065;-79
2023/06/28 03:48:35;;;;;;;17.02;5.95;;;18.90;99.90;;;;;;4997780;28;20042;-81
2023/06/28 03:51:02;;;;;;;19.90;6.32;;;18.90;99.90;;;;;;5013282;28;20047;-83
2023/06/28 03:53:29;;;;;;;19.38;6.50;;;18.90;99.90;;;;;;5014265;28;20492;-79
2023/06/28 03:55:58;;;;;;;21.13;5.53;;;18.90;99.90;;;;;;5014595;28;20052;-78
2023/06/28 03:58:25;;;;;;;16.30;6.05;;;18.90;99.90;;;;;;4997818;28;20105;-82
2023/06/28 04:00:52;;;;;;;21.35;6.35;;;18.90;99.90;;;;;;4998847;28;20105;-80
2023/06/28 04:03:19;;;;;;;18.17;6.82;;;18.90;99.90;;;;;;4998842;28;20046;-83
2023/06/28 04:05:47;;;;;;;21.33;7.10;;;18.90;99.90;;;;;;4997748;28;20050;-79
2023/06/28 04:08:14;;;;;;;19.17;6.97;;;18.90;99.90;;;;;;4998412;28;20145;-82
2023/06/28 04:10:41;;;;;;;20.08;6.80;;;18.80;99.90;;;;;;4997666;28;20042;-82
2023/06/28 04:13:08;;;;;;;20.02;7.20;;;18.90;99.90;;;;;;4997895;28;20096;-80
2023/06/28 04:15:35;;;;;;;16.27;6.47;;;18.90;99.90;;;;;;4998549;28;20381;-78
2023/06/28 04:18:02;;;;;;;14.70;6.22;;;19.00;99.90;;;;;;4997693;28;20038;-82
2023/06/28 04:20:29;;;;;;;21.65;6.47;;;19.00;99.90;;;;;;4998256;28;20046;-81
2023/06/28 04:22:55;;;;;;;17.48;6.38;;;19.00;99.90;;;;;;4998205;28;20042;-79
2023/06/28 04:25:22;;;;;;;21.08;6.75;;;19.00;99.90;;;;;;4997432;28;20504;-78
2023/06/28 04:27:49;;;;;;;22.65;7.65;;;19.00;99.90;;;;;;4980974;28;20132;-79
2023/06/28 04:30:15;;;;;;;16.90;5.88;;;19.00;99.90;;;;;;4997232;28;20116;-81
2023/06/28 04:32:44;;;;;;;26.58;7.78;;;18.90;99.90;;;;;;4997052;28;20050;-80
2023/06/28 04:35:13;;;;;;;23.20;7.03;;;18.90;99.90;;;;;;4980960;28;20514;-82
2023/06/28 04:37:43;;;;;;;21.42;6.47;;;18.80;99.90;;;;;;4997566;28;20046;-82
2023/06/28 04:40:10;;;;;;;20.30;6.80;;;18.80;99.90;;;;;;4997100;28;20057;-81
2023/06/28 04:42:37;;;;;;;17.52;6.75;;;18.80;99.90;;;;;;4981031;28;20050;-83
2023/06/28 04:45:06;;;;;;;17.60;6.78;;;18.80;99.90;;;;;;4997022;28;20051;-80
2023/06/28 04:47:35;;;;;;;16.35;6.35;;;18.80;99.90;;;;;;4997998;28;20434;-81
2023/06/28 04:50:05;;;;;;;16.45;6.85;;;18.90;99.90;;;;;;4997435;28;20516;-80
2023/06/28 04:52:32;;;;;;;20.00;6.72;;;18.80;99.90;;;;;;4980036;28;20046;-82
2023/06/28 04:55:01;;;;;;;14.80;5.80;;;18.80;99.90;;;;;;4997500;28;20130;-79
2023/06/28 04:57:27;;;;;;;23.15;6.13;;;18.90;99.90;;;;;;4978741;28;20077;-82
2023/06/28 04:59:55;;;;;;;17.98;5.75;;;18.90;99.90;;;;;;4987718;28;20136;-80
2023/06/28 05:02:25;;;;;;;18.42;7.35;;;18.90;99.90;;;;;;5000276;28;20382;-79
2023/06/28 05:04:53;;;;;;;16.10;6.03;;;19.00;99.90;;;;;;4998869;28;20088;-81
2023/06/28 05:07:19;;;;;;;17.05;6.63;;;19.00;99.90;;;;;;5017077;28;20046;-81
2023/06/28 05:09:48;;;;;;;17.83;6.28;;;19.00;99.90;;;;;;5009782;28;20115;-80
2023/06/28 05:12:15;;;;;;;16.38;6.07;;;19.00;99.90;;;;;;5016266;28;20045;-81
2023/06/28 05:14:43;;;;;;;14.20;5.53;;;19.00;99.90;;;;;;5017071;28;20066;-80
2023/06/28 05:17:09;;;;;;;16.20;6.70;;;19.00;99.90;;;;;;5016144;28;20092;-84
2023/06/28 05:19:36;;;;;;;17.30;6.25;;;19.10;99.90;;;;;;5015767;28;20053;-82
2023/06/28 05:22:03;;;;;;;18.60;5.82;;;19.20;99.90;;;;;;5016762;28;20045;-83
2023/06/28 05:24:29;;;;;;;18.05;5.75;;;19.20;99.90;;;;;;5016163;28;20439;-81
2023/06/28 05:26:56;;;;;;;16.88;7.13;;;19.20;99.90;;;;;;5016771;28;20045;-79
2023/06/28 05:29:23;;;;;;;17.88;6.50;;;19.20;99.90;;;;;;5016571;28;20771;-83
2023/06/28 05:31:49;;;;;;;19.40;6.25;;;19.20;99.90;;;;;;5015689;28;20042;-83
2023/06/28 05:34:16;;;;;;;20.08;6.80;;;19.30;99.90;;;;;;5015732;28;20129;-79
2023/06/28 05:36:45;;;;;;;20.17;6.47;;;19.20;99.90;;;;;;5016702;28;20069;-80
2023/06/28 05:39:11;;;;;;;17.83;6.55;;;19.20;99.90;;;;;;5014619;28;20044;-83
2023/06/28 05:41:38;;;;;;;20.67;6.63;;;19.30;99.90;;;;;;5016786;28;20050;-82
2023/06/28 05:44:05;;;;;;;18.92;6.43;;;19.30;99.90;;;;;;5015516;28;20069;-81
2023/06/28 05:46:32;;;;;;;18.10;6.82;;;19.30;99.90;;;;;;5016141;28;20164;-83
2023/06/28 05:49:00;;;;;;;16.98;6.70;;;19.30;99.90;;;;;;5016008;28;20045;-80
2023/06/28 05:51:28;;;;;;;17.77;6.30;;;19.40;99.90;;;;;;5015465;28;20085;-79
2023/06/28 05:53:54;;;;;;;16.85;5.97;;;19.40;99.90;;;;;;5016262;28;20462;-81
2023/06/28 05:56:21;;;;;;;21.80;7.55;;;19.40;99.90;;;;;;5016309;28;20424;-85
2023/06/28 05:58:48;;;;;;;21.13;7.85;;;19.40;99.90;;;;;;5015025;28;20524;-85
2023/06/28 06:01:14;;;;;;;19.38;6.68;;;19.40;99.90;;;;;;5016151;28;20078;-78
2023/06/28 06:03:41;;;;;;;19.85;7.28;;;19.40;99.90;;;;;;5015808;28;20070;-80
2023/06/28 06:06:09;;;;;;;17.48;6.80;;;19.50;99.90;;;;;;5014295;28;20080;-83
2023/06/28 06:08:36;;;;;;;19.00;6.63;;;19.50;99.90;;;;;;5014714;28;20515;-82
2023/06/28 06:11:03;;;;;;;18.30;7.20;;;19.50;99.90;;;;;;5015123;28;20034;-82
2023/06/28 06:13:30;;;;;;;15.07;6.65;;;19.50;99.90;;;;;;5016073;28;20165;-82
2023/06/28 06:15:57;;;;;;;19.27;7.47;;;19.50;99.90;;;;;;5014916;28;20057;-84
2023/06/28 06:18:23;;;;;;;15.88;6.25;;;19.60;99.90;;;;;;5014746;28;20080;-81
2023/06/28 06:20:51;;;;;;;18.83;6.82;;;19.60;99.90;;;;;;5015732;28;20117;-81
2023/06/28 06:23:17;;;;;;;16.90;6.60;;;19.50;99.90;;;;;;5015921;28;20065;-79
2023/06/28 06:25:44;;;;;;;18.52;6.75;;;19.50;99.90;;;;;;5014963;28;20115;-81
2023/06/28 06:28:11;;;;;;;18.02;6.93;;;19.40;99.90;;;;;;5015392;28;20046;-84
2023/06/28 06:30:38;;;;;;;15.73;6.43;;;19.50;99.90;;;;;;5015440;28;20046;-83
2023/06/28 06:33:08;;;;;;;20.48;6.85;;;19.50;99.90;;;;;;5015636;28;20038;-80
2023/06/28 06:35:37;;;;;;;23.27;6.90;;;19.60;99.90;;;;;;5015419;28;20038;-84
2023/06/28 06:38:04;;;;;;;15.93;6.70;;;19.60;99.90;;;;;;5004056;28;20081;-82
2023/06/28 06:40:31;;;;;;;19.88;7.05;;;19.60;99.90;;;;;;4976316;28;20081;-79
2023/06/28 06:42:58;;;;;;;19.35;6.93;;;19.60;99.90;;;;;;4979707;28;20073;-78
2023/06/28 06:45:25;;;;;;;17.67;7.03;;;19.70;99.90;;;;;;4994539;28;20046;-81
2023/06/28 06:47:52;;;;;;;20.10;6.35;;;19.70;99.90;;;;;;4995533;28;20074;-81
2023/06/28 06:50:18;;;;;;;14.95;5.90;;;19.70;99.90;;;;;;4995030;28;20034;-81
2023/06/28 06:52:45;;;;;;;22.67;7.45;;;19.80;99.90;;;;;;5010094;28;20081;-81
2023/06/28 06:55:12;;;;;;;16.98;6.28;;;19.80;99.90;;;;;;4995562;28;20117;-84
2023/06/28 06:57:38;;;;;;;19.30;6.95;;;20.00;99.90;;;;;;4994527;28;20077;-84
2023/06/28 07:00:05;;;;;;;20.13;7.00;;;20.00;99.90;;;;;;4995399;28;20046;-82
2023/06/28 07:02:32;;;;;;;15.60;7.22;;;20.10;99.90;;;;;;4995368;28;20046;-84
2023/06/28 07:05:01;;;;;;;17.70;7.13;;;20.20;99.90;;;;;;4994261;28;20043;-80
2023/06/28 07:07:28;;;;;;;16.73;6.55;;;20.30;99.90;;;;;;4995260;28;20042;-85
2023/06/28 07:09:55;;;;;;;17.52;7.40;;;20.40;99.90;;;;;;4994754;28;20039;-84
2023/06/28 07:12:22;;;;;;;15.77;6.78;;;20.50;99.90;;;;;;4993841;28;20086;-86
2023/06/28 07:14:49;;;;;;;19.30;6.85;;;20.50;99.90;;;;;;4994493;28;20076;-84
2023/06/28 07:17:16;;;;;;;16.58;7.03;;;20.50;99.90;;;;;;4994643;28;20120;-81
2023/06/28 07:19:43;;;;;;;17.27;7.10;;;20.60;99.90;;;;;;4996044;28;20050;-84
2023/06/28 07:22:09;;;;;;;15.50;6.53;;;20.70;99.90;;;;;;4982300;28;20104;-82
2023/06/28 07:24:36;;;;;;;20.20;7.25;;;20.70;99.90;;;;;;4998663;28;20043;-85
2023/06/28 07:27:03;;;;;;;16.60;6.53;;;20.80;99.90;;;;;;4998255;28;20100;-83
2023/06/28 07:29:30;;;;;;;20.13;7.80;;;20.90;99.90;;;;;;4998955;28;20178;-82
2023/06/28 07:31:57;;;;;;;17.17;6.53;;;20.90;99.90;;;;;;4998367;28;20433;-80
2023/06/28 07:37:11;;;;;;;17.30;6.38;;;21.00;99.90;;;;;;4999451;28;20421;-83
2023/06/28 07:39:38;;;;;;;19.15;6.40;;;21.20;99.90;;;;;;4998168;28;20042;-83
2023/06/28 07:42:05;;;;;;;20.33;6.75;;;21.50;99.90;;;;;;4982434;28;20474;-80
2023/06/28 07:44:32;;;;;;;15.93;6.63;;;21.50;99.90;;;;;;4969443;28;20092;-84
2023/06/28 07:46:58;;;;;;;19.23;7.32;;;21.40;99.90;;;;;;4981478;28;20054;-82
2023/06/28 07:49:25;;;;;;;16.25;6.22;;;21.50;99.90;;;;;;4998427;28;20043;-82
2023/06/28 07:51:53;;;;;;;15.52;6.57;;;21.70;99.90;;;;;;4998304;28;20042;-83
2023/06/28 07:54:20;;;;;;;16.75;6.65;;;21.70;99.90;;;;;;4997989;28;20056;-81
2023/06/28 07:56:59;;;;;;;18.80;6.35;;;21.60;99.90;;;;;;4998266;28;20112;-83
2023/06/28 07:59:26;;;;;;;18.08;6.20;;;21.60;99.90;;;;;;5000529;28;20101;-81
2023/06/28 08:01:52;;;;;;;19.80;6.63;;;21.60;99.90;;;;;;5010437;28;20042;-82
2023/06/28 08:04:20;;;;;;;13.80;5.93;;;21.60;99.90;;;;;;4996919;28;20122;-80
2023/06/28 08:06:49;;;;;;;14.40;5.82;;;21.60;99.90;;;;;;4998040;28;20129;-79
2023/06/28 08:09:16;;;;;;;13.65;5.78;;;21.70;99.90;;;;;;4997462;28;20046;-80
2023/06/28 08:11:42;;;;;;;14.18;6.20;;;21.50;99.90;;;;;;4990199;28;20069;-82
2023/06/28 08:14:10;;;;;;;12.52;5.88;;;21.40;99.90;;;;;;4991710;28;20073;-78
2023/06/28 08:16:37;;;;;;;13.02;5.97;;;21.30;99.90;;;;;;4985043;28;20050;-81
2023/06/28 08:19:04;;;;;;;18.27;6.82;;;21.40;99.90;;;;;;4978030;28;20089;-79
2023/06/28 08:21:31;;;;;;;17.60;6.45;;;21.60;99.90;;;;;;4968281;28;20042;-81
2023/06/28 08:23:57;;;;;;;14.50;6.20;;;21.70;99.90;;;;;;4997511;28;20069;-81
2023/06/28 08:26:24;;;;;;;17.83;6.80;;;21.80;99.90;;;;;;4996811;28;20050;-79
2023/06/28 08:28:51;;;;;;;18.10;6.97;;;21.80;99.90;;;;;;4995984;28;20038;-82
2023/06/28 08:31:25;;;;;;;16.60;6.70;;;21.60;99.90;;;;;;4996097;28;20484;-77
2023/06/28 08:33:52;;;;;;;14.60;6.22;;;21.50;99.90;;;;;;4997509;28;20039;-81
2023/06/28 08:36:21;;;;;;;17.40;7.35;;;21.60;99.90;;;;;;4997586;28;20543;-80
2023/06/28 08:38:47;;;;;;;16.05;5.90;;;21.60;99.90;;;;;;4994175;28;20112;-81
2023/06/28 08:41:14;;;;;;;14.27;6.07;;;21.60;99.90;;;;;;4996980;28;20050;-82
2023/06/28 08:43:44;;;;;;;15.23;6.53;;;21.70;99.90;;;;;;4998079;28;20046;-81
2023/06/28 08:46:11;;;;;;;14.65;6.55;;;21.80;99.90;;;;;;4995593;28;20120;-83
2023/06/28 08:48:37;;;;;;;17.10;5.70;;;21.80;99.90;;;;;;4997738;28;20457;-81
2023/06/28 08:51:04;;;;;;;17.92;6.00;;;21.80;99.90;;;;;;4996657;28;20381;-81
2023/06/28 08:53:31;;;;;;;23.98;6.88;;;22.00;99.90;;;;;;4997543;28;20097;-80
2023/06/28 08:55:59;;;;;;;16.60;6.20;;;21.90;99.90;;;;;;4996238;28;20113;-82
2023/06/28 08:58:26;;;;;;;12.13;5.60;;;22.00;99.90;;;;;;4995355;28;20042;-82
2023/06/28 09:00:53;;;;;;;15.70;5.85;;;22.00;99.90;;;;;;4997313;28;20088;-82
2023/06/28 09:03:20;;;;;;;16.35;6.15;;;22.00;99.90;;;;;;4996752;28;20129;-81
2023/06/28 09:05:47;;;;;;;12.07;5.22;;;21.90;99.90;;;;;;4995458;28;20052;-83
2023/06/28 09:08:14;;;;;;;12.32;5.43;;;21.90;99.90;;;;;;4996093;28;20073;-84
2023/06/28 09:10:40;;;;;;;15.07;6.38;;;21.90;99.90;;;;;;4979544;28;20046;-86
2023/06/28 09:13:07;;;;;;;14.95;6.20;;;22.00;99.90;;;;;;4996597;28;20809;-83
2023/06/28 09:15:35;;;;;;;14.15;5.80;;;22.10;99.90;;;;;;4996902;28;20469;-82
2023/06/28 09:18:02;;;;;;;13.50;5.18;;;22.20;99.90;;;;;;4996381;28;20053;-82
2023/06/28 09:20:29;;;;;;;12.88;6.00;;;22.20;99.90;;;;;;4996255;28;20142;-83
2023/06/28 09:22:56;;;;;;;14.20;5.78;;;22.30;99.90;;;;;;4995989;28;20453;-81
2023/06/28 09:25:24;;;;;;;15.00;5.75;;;22.50;99.90;;;;;;4996482;28;20137;-82
2023/06/28 09:27:50;;;;;;;14.18;6.68;;;22.50;99.90;;;;;;4996313;28;20117;-83
2023/06/28 09:30:35;;;;;;;14.18;6.60;;;22.60;99.90;;;;;;4996865;28;20057;-85
2023/06/28 09:33:02;;;;;;;13.95;5.85;;;22.50;99.90;;;;;;4996545;28;20043;-80
2023/06/28 09:35:30;;;;;;;13.43;5.80;;;22.50;99.90;;;;;;4996913;28;20049;-83
2023/06/28 09:37:58;;;;;;;13.27;6.65;;;22.50;99.90;;;;;;4996106;28;20046;-81
2023/06/28 09:40:26;;;;;;;14.38;5.82;;;22.50;99.90;;;;;;4979800;28;20453;-85
2023/06/28 09:42:52;;;;;;;12.20;5.25;;;22.70;99.90;;;;;;4995009;28;20058;-87
2023/06/28 09:45:19;;;;;;;17.00;6.90;;;22.60;99.90;;;;;;4994845;28;20046;-83
2023/06/28 09:47:46;;;;;;;14.18;5.35;;;22.70;99.90;;;;;;4996095;28;20110;-80
2023/06/28 09:50:13;;;;;;;13.77;5.75;;;22.50;99.90;;;;;;4996820;28;20100;-82
2023/06/28 09:52:39;;;;;;;14.07;5.75;;;22.40;99.90;;;;;;4982700;28;20039;-84
2023/06/28 09:55:08;;;;;;;15.38;6.00;;;22.60;99.90;;;;;;4960115;28;20130;-83
2023/06/28 09:57:35;;;;;;;16.67;6.38;;;22.70;99.90;;;;;;4959496;28;20046;-86
2023/06/28 10:00:04;;;;;;;14.35;5.45;;;22.60;99.90;;;;;;4959385;28;20542;-86
2023/06/28 10:02:37;;;;;;;14.30;5.50;;;22.60;99.90;;;;;;4961081;28;20104;-84
2023/06/28 10:05:04;;;;;;;16.83;6.78;;;22.60;99.90;;;;;;4959034;28;20050;-85
2023/06/28 10:07:31;;;;;;;16.58;6.82;;;22.60;99.90;;;;;;4959485;28;20076;-83
2023/06/28 10:09:58;;;;;;;15.73;6.43;;;22.50;99.90;;;;;;4976067;28;20050;-81
2023/06/28 10:12:25;;;;;;;16.02;6.93;;;22.40;99.90;;;;;;4975882;28;20082;-85
2023/06/28 10:14:52;;;;;;;16.60;7.15;;;22.50;99.90;;;;;;4960165;28;20186;-84
2023/06/28 10:17:18;;;;;;;16.77;7.30;;;22.60;99.90;;;;;;4958856;28;20461;-80
2023/06/28 10:19:45;;;;;;;14.68;7.13;;;22.70;99.90;;;;;;4959085;28;20378;-80
2023/06/28 10:22:12;;;;;;;20.85;7.25;;;23.00;99.90;;;;;;4976498;28;20039;-82
2023/06/28 10:24:39;;;;;;;18.58;7.93;;;23.20;99.90;;;;;;4958761;28;20453;-82
2023/06/28 10:27:06;;;;;;;15.13;7.05;;;23.30;99.90;;;;;;4976514;28;20110;-82
2023/06/28 10:29:32;;;;;;;17.40;7.82;;;23.30;99.90;;;;;;4958958;28;20043;-81
2023/06/28 10:31:59;;;;;;;18.48;7.35;;;23.30;99.90;;;;;;4958905;28;20073;-81
2023/06/28 10:34:26;;;;;;;21.52;7.63;;;23.50;99.90;;;;;;4976498;28;20043;-81
2023/06/28 10:36:53;;;;;;;18.10;6.72;;;23.70;99.90;;;;;;4975974;28;20101;-86
2023/06/28 10:39:19;;;;;;;15.45;7.43;;;23.70;99.90;;;;;;4958603;28;20109;-82
2023/06/28 10:41:46;;;;;;;15.00;6.72;;;23.60;99.90;;;;;;4959004;28;20085;-83
2023/06/28 10:44:13;;;;;;;15.95;6.38;;;23.50;99.90;;;;;;4958148;28;20051;-83
2023/06/28 10:46:41;;;;;;;15.05;7.35;;;23.50;99.90;;;;;;4975874;28;20051;-84
2023/06/28 10:49:15;;;;;;;16.80;6.15;;;23.40;99.90;;;;;;4975839;28;20050;-83
2023/06/28 10:51:42;;;;;;;17.52;6.93;;;23.50;99.90;;;;;;4957974;28;20035;-81
2023/06/28 10:54:09;;;;;;;16.42;6.55;;;23.40;99.90;;;;;;4961793;28;20133;-83
2023/06/28 10:56:36;;;;;;;15.40;7.05;;;23.30;99.90;;;;;;4995213;28;20096;-84
2023/06/28 10:59:02;;;;;;;14.60;5.95;;;23.10;99.90;;;;;;4993416;28;20046;-83
2023/06/28 11:01:29;;;;;;;12.60;6.00;;;23.00;99.90;;;;;;4995234;28;20043;-83
2023/06/28 11:03:56;;;;;;;13.52;5.68;;;22.90;99.90;;;;;;4994663;28;20042;-84
2023/06/28 11:06:23;;;;;;;13.50;5.47;;;22.90;99.90;;;;;;4993533;28;20469;-82
2023/06/28 11:08:50;;;;;;;13.82;5.53;;;22.70;99.90;;;;;;4994666;28;20437;-83
2023/06/28 11:11:16;;;;;;;11.98;5.00;;;22.60;99.90;;;;;;4977181;28;20105;-82
2023/06/28 11:13:45;;;;;;;14.30;5.75;;;22.50;99.90;;;;;;4995000;28;20113;-86
2023/06/28 11:16:13;;;;;;;13.20;5.82;;;22.60;99.90;;;;;;4994281;28;20096;-86
2023/06/28 11:18:39;;;;;;;15.52;5.35;;;22.70;99.90;;;;;;4977072;28;20053;-82
2023/06/28 11:21:06;;;;;;;15.25;5.22;;;22.70;99.90;;;;;;4994806;28;20050;-83
2023/06/28 11:23:33;;;;;;;11.70;5.10;;;22.80;99.90;;;;;;4994778;28;20076;-84
2023/06/28 11:26:01;;;;;;;12.73;4.95;;;22.70;99.90;;;;;;4994247;28;20481;-82
2023/06/28 11:28:28;;;;;;;15.30;5.40;;;22.80;99.90;;;;;;4993837;28;20137;-80
2023/06/28 11:30:55;;;;;;;13.90;5.60;;;22.70;99.90;;;;;;4995696;28;20471;-82
2023/06/28 11:33:22;;;;;;;16.30;5.10;;;22.60;99.90;;;;;;4994785;28;20046;-80
2023/06/28 11:35:50;;;;;;;12.13;5.32;;;22.60;99.90;;;;;;4995149;28;20368;-82
2023/06/28 11:38:16;;;;;;;12.57;5.28;;;22.90;99.90;;;;;;4957772;28;20093;-81
2023/06/28 11:40:43;;;;;;;14.00;5.55;;;23.20;99.90;;;;;;4975823;28;20066;-83
2023/06/28 11:43:10;;;;;;;13.85;6.00;;;23.40;99.90;;;;;;4958956;28;20078;-81
2023/06/28 11:45:38;;;;;;;15.35;6.28;;;23.70;99.90;;;;;;4975741;28;20050;-82
2023/06/28 11:48:05;;;;;;;13.13;5.88;;;24.10;99.90;;;;;;4993563;28;20045;-81
2023/06/28 11:50:32;;;;;;;15.55;8.90;;;24.70;99.90;;;;;;4995082;28;20156;-79
2023/06/28 11:53:01;;;;;;;13.02;6.10;;;25.20;99.90;;;;;;4983883;28;20472;-81
2023/06/28 11:55:28;;;;;;;16.00;8.45;;;25.40;99.90;;;;;;4993981;28;20124;-82
2023/06/28 11:57:55;;;;;;;14.07;7.25;;;25.50;99.90;;;;;;5008087;28;20405;-81
2023/06/28 12:00:22;;;;;;;14.63;7.82;;;25.20;99.90;;;;;;5009114;28;20105;-81
2023/06/28 12:02:48;;;;;;;12.88;6.18;;;25.20;99.90;;;;;;4993946;28;20054;-81
2023/06/28 12:05:15;;;;;;;15.20;9.05;;;24.90;99.90;;;;;;4993903;28;20046;-81
2023/06/28 12:07:42;;;;;;;13.65;5.47;;;24.60;99.90;;;;;;5012703;28;20113;-82
2023/06/28 12:10:11;;;;;;;15.52;8.90;;;24.60;99.90;;;;;;4994412;28;20100;-82
2023/06/28 12:12:41;;;;;;;16.00;8.85;;;24.50;99.90;;;;;;4996980;28;20373;-81
2023/06/28 12:15:08;;;;;;;13.03;5.70;;;24.80;99.90;;;;;;4998172;28;20075;-81
2023/06/28 12:17:34;;;;;;;13.23;8.35;;;24.90;99.90;;;;;;4995173;28;20520;-81
2023/06/28 12:20:01;;;;;;;15.45;6.72;;;25.00;99.90;;;;;;4998181;28;20413;-80
2023/06/28 12:22:28;;;;;;;13.50;8.70;;;24.90;99.90;;;;;;4997914;28;20054;-80
2023/06/28 12:24:55;;;;;;;15.13;6.53;;;24.70;99.90;;;;;;4996935;28;20050;-81
2023/06/28 12:27:22;;;;;;;15.63;7.93;;;24.40;99.90;;;;;;4998316;28;20076;-81
2023/06/28 12:29:48;;;;;;;12.88;6.20;;;24.40;99.90;;;;;;4973766;28;20109;-80
2023/06/28 12:32:15;;;;;;;16.73;8.88;;;24.50;99.90;;;;;;4960885;28;20070;-81
2023/06/28 12:34:47;;;;;;;;;;;24.50;99.90;;;;;;4986697;28;20034;-83
2023/06/28 12:37:14;;;;;;;12.32;6.53;;;24.60;99.90;;;;;;4996503;28;19992;-81
2023/06/28 12:39:41;;;;;;;13.05;5.15;;;24.60;99.90;;;;;;4996638;28;20468;-81
2023/06/28 12:42:08;;;;;;;15.43;7.45;;;24.60;99.90;;;;;;4997305;28;20120;-81